sensor_id;sensor_type;location;lat;lon;timestamp;P1;durP1;ratioP1;P2;durP2;ratioP2
45784;SDS011;31489;51.404;5.474;2023-02-27T00:02:07;6.35;;;1.98;;
45784;SDS011;31489;51.404;5.474;2023-02-27T00:04:33;8.25;;;1.80;;
45784;SDS011;31489;51.404;5.474;2023-02-27T00:06:59;5.70;;;1.77;;
45784;SDS011;31489;51.404;5.474;2023-02-27T00:09:25;3.65;;;1.63;;
45784;SDS011;31489;51.404;5.474;2023-02-27T00:11:50;4.45;;;1.70;;
45784;SDS011;31489;51.404;5.474;2023-02-27T00:14:16;4.80;;;1.70;;
45784;SDS011;31489;51.404;5.474;2023-02-27T00:16:42;4.50;;;1.75;;
45784;SDS011;31489;51.404;5.474;2023-02-27T00:19:08;3.38;;;1.55;;
45784;SDS011;31489;51.404;5.474;2023-02-27T00:21:33;5.25;;;1.98;;
45784;SDS011;31489;51.404;5.474;2023-02-27T00:24:00;5.22;;;1.73;;
45784;SDS011;31489;51.404;5.474;2023-02-27T00:26:26;5.03;;;1.85;;
45784;SDS011;31489;51.404;5.474;2023-02-27T00:28:52;4.00;;;1.63;;
45784;SDS011;31489;51.404;5.474;2023-02-27T00:31:18;2.92;;;1.60;;
45784;SDS011;31489;51.404;5.474;2023-02-27T00:33:43;5.30;;;1.73;;
45784;SDS011;31489;51.404;5.474;2023-02-27T00:36:09;5.07;;;1.70;;
45784;SDS011;31489;51.404;5.474;2023-02-27T00:38:35;3.47;;;1.40;;
45784;SDS011;31489;51.404;5.474;2023-02-27T00:41:00;4.63;;;1.60;;
45784;SDS011;31489;51.404;5.474;2023-02-27T00:43:26;8.15;;;1.65;;
45784;SDS011;31489;51.404;5.474;2023-02-27T00:45:52;4.10;;;1.70;;
45784;SDS011;31489;51.404;5.474;2023-02-27T00:48:18;3.47;;;1.50;;
45784;SDS011;31489;51.404;5.474;2023-02-27T00:50:44;6.47;;;1.58;;
45784;SDS011;31489;51.404;5.474;2023-02-27T00:53:09;5.80;;;1.63;;
45784;SDS011;31489;51.404;5.474;2023-02-27T00:55:35;5.55;;;1.65;;
45784;SDS011;31489;51.404;5.474;2023-02-27T00:58:01;5.15;;;1.60;;
45784;SDS011;31489;51.404;5.474;2023-02-27T01:00:27;4.07;;;1.40;;
45784;SDS011;31489;51.404;5.474;2023-02-27T01:02:52;6.47;;;1.85;;
45784;SDS011;31489;51.404;5.474;2023-02-27T01:05:18;5.53;;;1.73;;
45784;SDS011;31489;51.404;5.474;2023-02-27T01:07:44;6.22;;;1.58;;
45784;SDS011;31489;51.404;5.474;2023-02-27T01:10:13;3.05;;;1.52;;
45784;SDS011;31489;51.404;5.474;2023-02-27T01:12:38;7.82;;;1.70;;
45784;SDS011;31489;51.404;5.474;2023-02-27T01:15:04;2.28;;;1.40;;
45784;SDS011;31489;51.404;5.474;2023-02-27T01:17:31;4.97;;;1.50;;
45784;SDS011;31489;51.404;5.474;2023-02-27T01:19:57;4.55;;;1.40;;
45784;SDS011;31489;51.404;5.474;2023-02-27T01:22:23;4.28;;;1.60;;
45784;SDS011;31489;51.404;5.474;2023-02-27T01:24:49;6.47;;;1.50;;
45784;SDS011;31489;51.404;5.474;2023-02-27T01:27:14;8.25;;;1.70;;
45784;SDS011;31489;51.404;5.474;2023-02-27T01:29:40;2.72;;;1.42;;
45784;SDS011;31489;51.404;5.474;2023-02-27T01:32:06;5.40;;;1.95;;
45784;SDS011;31489;51.404;5.474;2023-02-27T01:34:32;4.55;;;1.75;;
45784;SDS011;31489;51.404;5.474;2023-02-27T01:36:57;2.22;;;1.42;;
45784;SDS011;31489;51.404;5.474;2023-02-27T01:39:23;5.40;;;1.40;;
45784;SDS011;31489;51.404;5.474;2023-02-27T01:41:50;4.25;;;1.40;;
45784;SDS011;31489;51.404;5.474;2023-02-27T01:44:17;3.58;;;1.60;;
45784;SDS011;31489;51.404;5.474;2023-02-27T01:46:43;4.45;;;1.80;;
45784;SDS011;31489;51.404;5.474;2023-02-27T01:49:14;4.00;;;1.60;;
45784;SDS011;31489;51.404;5.474;2023-02-27T01:51:41;2.85;;;1.63;;
45784;SDS011;31489;51.404;5.474;2023-02-27T01:54:11;3.47;;;1.33;;
45784;SDS011;31489;51.404;5.474;2023-02-27T01:56:41;3.83;;;1.75;;
45784;SDS011;31489;51.404;5.474;2023-02-27T01:59:08;6.82;;;1.60;;
45784;SDS011;31489;51.404;5.474;2023-02-27T02:01:36;7.65;;;1.80;;
45784;SDS011;31489;51.404;5.474;2023-02-27T02:09:06;4.22;;;1.50;;
45784;SDS011;31489;51.404;5.474;2023-02-27T02:11:33;9.27;;;1.60;;
45784;SDS011;31489;51.404;5.474;2023-02-27T02:14:00;5.00;;;1.25;;
45784;SDS011;31489;51.404;5.474;2023-02-27T02:16:38;5.90;;;1.67;;
45784;SDS011;31489;51.404;5.474;2023-02-27T02:33:32;4.82;;;1.70;;
45784;SDS011;31489;51.404;5.474;2023-02-27T02:38:47;3.70;;;1.55;;
45784;SDS011;31489;51.404;5.474;2023-02-27T02:41:23;4.38;;;1.77;;
45784;SDS011;31489;51.404;5.474;2023-02-27T02:47:09;5.38;;;1.95;;
45784;SDS011;31489;51.404;5.474;2023-02-27T02:57:31;3.92;;;1.90;;
45784;SDS011;31489;51.404;5.474;2023-02-27T03:00:17;5.00;;;1.75;;
45784;SDS011;31489;51.404;5.474;2023-02-27T03:02:50;8.95;;;2.05;;
45784;SDS011;31489;51.404;5.474;2023-02-27T03:05:35;7.82;;;2.50;;
45784;SDS011;31489;51.404;5.474;2023-02-27T03:08:22;5.75;;;1.90;;
45784;SDS011;31489;51.404;5.474;2023-02-27T03:10:54;5.57;;;1.70;;
45784;SDS011;31489;51.404;5.474;2023-02-27T03:13:45;6.07;;;1.70;;
45784;SDS011;31489;51.404;5.474;2023-02-27T03:18:55;7.15;;;1.70;;
45784;SDS011;31489;51.404;5.474;2023-02-27T03:21:33;5.82;;;1.83;;
45784;SDS011;31489;51.404;5.474;2023-02-27T03:24:23;6.78;;;1.98;;
45784;SDS011;31489;51.404;5.474;2023-02-27T03:26:54;5.03;;;1.85;;
45784;SDS011;31489;51.404;5.474;2023-02-27T03:29:29;3.70;;;1.52;;
45784;SDS011;31489;51.404;5.474;2023-02-27T03:32:31;5.50;;;1.80;;
45784;SDS011;31489;51.404;5.474;2023-02-27T03:34:59;3.20;;;1.85;;
45784;SDS011;31489;51.404;5.474;2023-02-27T03:40:48;5.22;;;1.65;;
45784;SDS011;31489;51.404;5.474;2023-02-27T03:46:31;4.18;;;2.15;;
45784;SDS011;31489;51.404;5.474;2023-02-27T03:48:57;5.28;;;1.90;;
45784;SDS011;31489;51.404;5.474;2023-02-27T03:51:23;7.28;;;2.65;;
45784;SDS011;31489;51.404;5.474;2023-02-27T03:56:31;3.92;;;1.90;;
45784;SDS011;31489;51.404;5.474;2023-02-27T03:59:04;4.85;;;1.77;;
45784;SDS011;31489;51.404;5.474;2023-02-27T04:01:31;7.55;;;1.98;;
45784;SDS011;31489;51.404;5.474;2023-02-27T04:03:58;8.85;;;2.50;;
45784;SDS011;31489;51.404;5.474;2023-02-27T04:06:29;5.32;;;1.88;;
45784;SDS011;31489;51.404;5.474;2023-02-27T04:15:03;5.18;;;2.40;;
45784;SDS011;31489;51.404;5.474;2023-02-27T04:17:56;9.40;;;2.10;;
45784;SDS011;31489;51.404;5.474;2023-02-27T04:23:09;12.25;;;2.25;;
45784;SDS011;31489;51.404;5.474;2023-02-27T04:28:51;6.25;;;2.15;;
45784;SDS011;31489;51.404;5.474;2023-02-27T04:34:20;4.43;;;2.10;;
45784;SDS011;31489;51.404;5.474;2023-02-27T04:37:16;1.70;;;1.60;;
45784;SDS011;31489;51.404;5.474;2023-02-27T04:42:26;6.15;;;2.10;;
45784;SDS011;31489;51.404;5.474;2023-02-27T04:45:00;4.95;;;1.73;;
45784;SDS011;31489;51.404;5.474;2023-02-27T04:47:31;5.15;;;2.03;;
45784;SDS011;31489;51.404;5.474;2023-02-27T04:50:06;4.32;;;2.00;;
45784;SDS011;31489;51.404;5.474;2023-02-27T04:57:39;7.10;;;2.30;;
45784;SDS011;31489;51.404;5.474;2023-02-27T05:00:13;5.13;;;2.38;;
45784;SDS011;31489;51.404;5.474;2023-02-27T05:03:03;4.60;;;2.00;;
45784;SDS011;31489;51.404;5.474;2023-02-27T05:05:44;7.18;;;2.28;;
45784;SDS011;31489;51.404;5.474;2023-02-27T05:08:17;3.45;;;1.95;;
45784;SDS011;31489;51.404;5.474;2023-02-27T05:14:03;6.03;;;1.77;;
45784;SDS011;31489;51.404;5.474;2023-02-27T05:16:35;7.05;;;2.22;;
45784;SDS011;31489;51.404;5.474;2023-02-27T05:19:05;3.20;;;2.22;;
45784;SDS011;31489;51.404;5.474;2023-02-27T05:21:33;3.78;;;2.08;;
45784;SDS011;31489;51.404;5.474;2023-02-27T05:27:05;7.32;;;2.20;;
45784;SDS011;31489;51.404;5.474;2023-02-27T05:32:39;6.78;;;2.25;;
45784;SDS011;31489;51.404;5.474;2023-02-27T05:35:33;4.22;;;2.15;;
45784;SDS011;31489;51.404;5.474;2023-02-27T05:41:06;5.38;;;2.30;;
45784;SDS011;31489;51.404;5.474;2023-02-27T05:43:42;4.13;;;1.80;;
45784;SDS011;31489;51.404;5.474;2023-02-27T05:46:28;5.72;;;2.10;;
45784;SDS011;31489;51.404;5.474;2023-02-27T05:49:01;5.43;;;2.20;;
45784;SDS011;31489;51.404;5.474;2023-02-27T05:51:34;4.00;;;2.20;;
45784;SDS011;31489;51.404;5.474;2023-02-27T05:54:38;4.47;;;1.92;;
45784;SDS011;31489;51.404;5.474;2023-02-27T05:57:02;4.93;;;2.20;;
45784;SDS011;31489;51.404;5.474;2023-02-27T05:59:37;7.88;;;2.15;;
45784;SDS011;31489;51.404;5.474;2023-02-27T06:02:26;5.82;;;2.33;;
45784;SDS011;31489;51.404;5.474;2023-02-27T06:04:53;5.35;;;2.20;;
45784;SDS011;31489;51.404;5.474;2023-02-27T06:07:19;5.25;;;2.35;;
45784;SDS011;31489;51.404;5.474;2023-02-27T06:09:46;5.10;;;2.50;;
45784;SDS011;31489;51.404;5.474;2023-02-27T06:12:13;5.30;;;2.30;;
45784;SDS011;31489;51.404;5.474;2023-02-27T06:14:39;5.38;;;2.30;;
45784;SDS011;31489;51.404;5.474;2023-02-27T06:17:04;8.30;;;2.30;;
45784;SDS011;31489;51.404;5.474;2023-02-27T06:19:30;3.67;;;2.13;;
45784;SDS011;31489;51.404;5.474;2023-02-27T06:21:56;5.63;;;2.20;;
45784;SDS011;31489;51.404;5.474;2023-02-27T06:24:22;6.90;;;2.20;;
45784;SDS011;31489;51.404;5.474;2023-02-27T06:26:47;9.60;;;2.60;;
45784;SDS011;31489;51.404;5.474;2023-02-27T06:29:13;5.93;;;2.10;;
45784;SDS011;31489;51.404;5.474;2023-02-27T06:31:39;5.38;;;2.33;;
45784;SDS011;31489;51.404;5.474;2023-02-27T06:34:04;7.72;;;2.20;;
45784;SDS011;31489;51.404;5.474;2023-02-27T06:36:30;5.03;;;2.58;;
45784;SDS011;31489;51.404;5.474;2023-02-27T06:38:55;4.70;;;2.40;;
45784;SDS011;31489;51.404;5.474;2023-02-27T06:41:22;5.45;;;2.60;;
45784;SDS011;31489;51.404;5.474;2023-02-27T06:43:47;7.45;;;2.63;;
45784;SDS011;31489;51.404;5.474;2023-02-27T06:46:13;19.45;;;5.35;;
45784;SDS011;31489;51.404;5.474;2023-02-27T06:48:39;6.65;;;2.83;;
45784;SDS011;31489;51.404;5.474;2023-02-27T06:51:04;4.55;;;2.60;;
45784;SDS011;31489;51.404;5.474;2023-02-27T06:53:31;7.50;;;2.63;;
45784;SDS011;31489;51.404;5.474;2023-02-27T06:55:57;8.95;;;2.53;;
45784;SDS011;31489;51.404;5.474;2023-02-27T06:58:23;3.42;;;2.40;;
45784;SDS011;31489;51.404;5.474;2023-02-27T07:00:49;6.90;;;2.35;;
45784;SDS011;31489;51.404;5.474;2023-02-27T07:03:14;7.45;;;2.40;;
45784;SDS011;31489;51.404;5.474;2023-02-27T07:05:40;5.72;;;2.38;;
45784;SDS011;31489;51.404;5.474;2023-02-27T07:08:06;5.05;;;2.30;;
45784;SDS011;31489;51.404;5.474;2023-02-27T07:10:32;4.55;;;2.53;;
45784;SDS011;31489;51.404;5.474;2023-02-27T07:12:58;8.68;;;2.83;;
45784;SDS011;31489;51.404;5.474;2023-02-27T07:15:23;5.15;;;2.67;;
45784;SDS011;31489;51.404;5.474;2023-02-27T07:17:49;4.57;;;2.55;;
45784;SDS011;31489;51.404;5.474;2023-02-27T07:20:15;5.47;;;2.47;;
45784;SDS011;31489;51.404;5.474;2023-02-27T07:22:40;10.18;;;2.80;;
45784;SDS011;31489;51.404;5.474;2023-02-27T07:25:06;4.88;;;2.80;;
45784;SDS011;31489;51.404;5.474;2023-02-27T07:27:33;6.60;;;3.25;;
45784;SDS011;31489;51.404;5.474;2023-02-27T07:29:58;4.70;;;2.60;;
45784;SDS011;31489;51.404;5.474;2023-02-27T07:32:25;8.70;;;3.17;;
45784;SDS011;31489;51.404;5.474;2023-02-27T07:34:50;7.13;;;2.90;;
45784;SDS011;31489;51.404;5.474;2023-02-27T07:37:16;5.22;;;2.55;;
45784;SDS011;31489;51.404;5.474;2023-02-27T07:39:42;6.22;;;2.67;;
45784;SDS011;31489;51.404;5.474;2023-02-27T07:42:08;6.35;;;3.03;;
45784;SDS011;31489;51.404;5.474;2023-02-27T07:44:34;7.80;;;2.90;;
45784;SDS011;31489;51.404;5.474;2023-02-27T07:47:00;7.25;;;3.00;;
45784;SDS011;31489;51.404;5.474;2023-02-27T07:49:25;7.57;;;2.70;;
45784;SDS011;31489;51.404;5.474;2023-02-27T07:51:51;4.30;;;2.22;;
45784;SDS011;31489;51.404;5.474;2023-02-27T07:54:17;6.72;;;2.70;;
45784;SDS011;31489;51.404;5.474;2023-02-27T07:56:42;8.90;;;2.60;;
45784;SDS011;31489;51.404;5.474;2023-02-27T07:59:08;6.00;;;2.47;;
45784;SDS011;31489;51.404;5.474;2023-02-27T08:01:34;5.95;;;3.13;;
45784;SDS011;31489;51.404;5.474;2023-02-27T08:03:59;6.60;;;2.70;;
45784;SDS011;31489;51.404;5.474;2023-02-27T08:06:25;5.05;;;2.80;;
45784;SDS011;31489;51.404;5.474;2023-02-27T08:08:51;5.72;;;2.97;;
45784;SDS011;31489;51.404;5.474;2023-02-27T08:11:17;4.97;;;2.42;;
45784;SDS011;31489;51.404;5.474;2023-02-27T08:13:43;5.85;;;3.08;;
45784;SDS011;31489;51.404;5.474;2023-02-27T08:16:10;7.00;;;2.63;;
45784;SDS011;31489;51.404;5.474;2023-02-27T08:18:36;7.20;;;3.22;;
45784;SDS011;31489;51.404;5.474;2023-02-27T08:21:04;5.28;;;2.22;;
45784;SDS011;31489;51.404;5.474;2023-02-27T08:23:30;4.32;;;2.40;;
45784;SDS011;31489;51.404;5.474;2023-02-27T08:25:58;5.97;;;2.25;;
45784;SDS011;31489;51.404;5.474;2023-02-27T08:28:25;4.85;;;2.40;;
45784;SDS011;31489;51.404;5.474;2023-02-27T08:30:51;7.72;;;2.97;;
45784;SDS011;31489;51.404;5.474;2023-02-27T08:33:17;8.98;;;2.78;;
45784;SDS011;31489;51.404;5.474;2023-02-27T08:35:43;3.95;;;2.40;;
45784;SDS011;31489;51.404;5.474;2023-02-27T08:38:08;5.00;;;2.60;;
45784;SDS011;31489;51.404;5.474;2023-02-27T08:40:34;8.85;;;2.33;;
45784;SDS011;31489;51.404;5.474;2023-02-27T08:43:00;6.00;;;2.67;;
45784;SDS011;31489;51.404;5.474;2023-02-27T08:45:25;7.28;;;2.40;;
45784;SDS011;31489;51.404;5.474;2023-02-27T08:47:51;10.48;;;2.67;;
45784;SDS011;31489;51.404;5.474;2023-02-27T08:50:17;4.70;;;2.10;;
45784;SDS011;31489;51.404;5.474;2023-02-27T08:52:43;4.90;;;2.40;;
45784;SDS011;31489;51.404;5.474;2023-02-27T08:55:08;4.45;;;2.15;;
45784;SDS011;31489;51.404;5.474;2023-02-27T08:57:34;4.22;;;2.15;;
45784;SDS011;31489;51.404;5.474;2023-02-27T09:00:00;7.05;;;2.45;;
45784;SDS011;31489;51.404;5.474;2023-02-27T09:02:26;5.90;;;2.33;;
45784;SDS011;31489;51.404;5.474;2023-02-27T09:04:52;9.27;;;2.40;;
45784;SDS011;31489;51.404;5.474;2023-02-27T09:07:18;3.60;;;1.92;;
45784;SDS011;31489;51.404;5.474;2023-02-27T09:09:44;3.38;;;1.88;;
45784;SDS011;31489;51.404;5.474;2023-02-27T09:12:10;3.60;;;1.70;;
45784;SDS011;31489;51.404;5.474;2023-02-27T09:14:38;4.72;;;1.83;;
45784;SDS011;31489;51.404;5.474;2023-02-27T09:17:04;4.80;;;2.22;;
45784;SDS011;31489;51.404;5.474;2023-02-27T09:19:30;4.22;;;2.00;;
45784;SDS011;31489;51.404;5.474;2023-02-27T09:21:58;6.97;;;1.98;;
45784;SDS011;31489;51.404;5.474;2023-02-27T09:24:24;5.03;;;2.03;;
45784;SDS011;31489;51.404;5.474;2023-02-27T09:26:50;3.40;;;1.65;;
45784;SDS011;31489;51.404;5.474;2023-02-27T09:29:19;4.00;;;1.85;;
45784;SDS011;31489;51.404;5.474;2023-02-27T09:31:45;4.30;;;1.83;;
45784;SDS011;31489;51.404;5.474;2023-02-27T09:34:11;7.25;;;1.80;;
45784;SDS011;31489;51.404;5.474;2023-02-27T09:36:39;6.13;;;1.65;;
45784;SDS011;31489;51.404;5.474;2023-02-27T09:39:05;3.83;;;1.55;;
45784;SDS011;31489;51.404;5.474;2023-02-27T09:44:31;4.68;;;1.73;;
45784;SDS011;31489;51.404;5.474;2023-02-27T09:46:58;2.95;;;1.67;;
45784;SDS011;31489;51.404;5.474;2023-02-27T09:49:25;4.55;;;1.65;;
45784;SDS011;31489;51.404;5.474;2023-02-27T09:51:59;4.50;;;1.67;;
45784;SDS011;31489;51.404;5.474;2023-02-27T09:54:30;4.95;;;1.88;;
45784;SDS011;31489;51.404;5.474;2023-02-27T09:56:59;5.47;;;1.80;;
45784;SDS011;31489;51.404;5.474;2023-02-27T09:59:38;4.90;;;1.70;;
45784;SDS011;31489;51.404;5.474;2023-02-27T10:05:30;5.30;;;1.50;;
45784;SDS011;31489;51.404;5.474;2023-02-27T10:08:17;4.38;;;1.70;;
45784;SDS011;31489;51.404;5.474;2023-02-27T10:10:55;4.82;;;1.85;;
45784;SDS011;31489;51.404;5.474;2023-02-27T10:13:48;3.80;;;1.65;;
45784;SDS011;31489;51.404;5.474;2023-02-27T10:16:27;3.08;;;1.38;;
45784;SDS011;31489;51.404;5.474;2023-02-27T10:19:00;4.18;;;1.40;;
45784;SDS011;31489;51.404;5.474;2023-02-27T10:21:32;3.33;;;1.33;;
45784;SDS011;31489;51.404;5.474;2023-02-27T10:24:16;2.72;;;1.10;;
45784;SDS011;31489;51.404;5.474;2023-02-27T10:26:47;3.38;;;1.30;;
45784;SDS011;31489;51.404;5.474;2023-02-27T10:34:44;3.53;;;1.30;;
45784;SDS011;31489;51.404;5.474;2023-02-27T10:37:31;3.50;;;1.33;;
45784;SDS011;31489;51.404;5.474;2023-02-27T10:40:01;2.42;;;1.60;;
45784;SDS011;31489;51.404;5.474;2023-02-27T10:42:33;2.88;;;1.13;;
45784;SDS011;31489;51.404;5.474;2023-02-27T10:45:02;2.00;;;1.20;;
45784;SDS011;31489;51.404;5.474;2023-02-27T10:47:29;3.25;;;1.45;;
45784;SDS011;31489;51.404;5.474;2023-02-27T10:49:55;3.85;;;1.30;;
45784;SDS011;31489;51.404;5.474;2023-02-27T10:52:24;5.18;;;1.45;;
45784;SDS011;31489;51.404;5.474;2023-02-27T10:54:50;2.45;;;1.02;;
45784;SDS011;31489;51.404;5.474;2023-02-27T10:59:52;3.05;;;1.40;;
45784;SDS011;31489;51.404;5.474;2023-02-27T11:02:23;3.00;;;1.52;;
45784;SDS011;31489;51.404;5.474;2023-02-27T11:04:56;2.72;;;1.40;;
45784;SDS011;31489;51.404;5.474;2023-02-27T11:07:32;3.10;;;0.93;;
45784;SDS011;31489;51.404;5.474;2023-02-27T11:10:02;3.78;;;1.40;;
45784;SDS011;31489;51.404;5.474;2023-02-27T11:12:37;2.97;;;1.20;;
45784;SDS011;31489;51.404;5.474;2023-02-27T11:17:40;2.88;;;1.33;;
45784;SDS011;31489;51.404;5.474;2023-02-27T11:20:52;3.67;;;1.10;;
45784;SDS011;31489;51.404;5.474;2023-02-27T11:23:02;3.08;;;0.98;;
45784;SDS011;31489;51.404;5.474;2023-02-27T11:25:37;2.90;;;1.30;;
45784;SDS011;31489;51.404;5.474;2023-02-27T11:30:57;3.55;;;1.20;;
45784;SDS011;31489;51.404;5.474;2023-02-27T11:33:25;3.30;;;1.42;;
45784;SDS011;31489;51.404;5.474;2023-02-27T11:35:52;2.67;;;1.23;;
45784;SDS011;31489;51.404;5.474;2023-02-27T11:38:23;2.45;;;1.25;;
45784;SDS011;31489;51.404;5.474;2023-02-27T11:40:53;4.72;;;1.30;;
45784;SDS011;31489;51.404;5.474;2023-02-27T11:43:24;2.08;;;1.45;;
45784;SDS011;31489;51.404;5.474;2023-02-27T11:46:11;4.25;;;1.40;;
45784;SDS011;31489;51.404;5.474;2023-02-27T11:54:26;2.78;;;1.38;;
45784;SDS011;31489;51.404;5.474;2023-02-27T11:57:13;2.47;;;1.13;;
45784;SDS011;31489;51.404;5.474;2023-02-27T12:00:05;3.22;;;1.50;;
45784;SDS011;31489;51.404;5.474;2023-02-27T12:05:29;4.63;;;1.30;;
45784;SDS011;31489;51.404;5.474;2023-02-27T12:08:19;2.55;;;1.38;;
45784;SDS011;31489;51.404;5.474;2023-02-27T12:11:02;2.58;;;1.35;;
45784;SDS011;31489;51.404;5.474;2023-02-27T12:13:35;3.03;;;1.15;;
45784;SDS011;31489;51.404;5.474;2023-02-27T12:18:32;1.85;;;1.20;;
45784;SDS011;31489;51.404;5.474;2023-02-27T12:21:12;3.53;;;1.10;;
45784;SDS011;31489;51.404;5.474;2023-02-27T12:23:40;2.63;;;1.15;;
45784;SDS011;31489;51.404;5.474;2023-02-27T12:26:23;4.78;;;1.40;;
45784;SDS011;31489;51.404;5.474;2023-02-27T12:36:27;3.85;;;1.30;;
45784;SDS011;31489;51.404;5.474;2023-02-27T12:38:53;3.90;;;1.10;;
45784;SDS011;31489;51.404;5.474;2023-02-27T12:41:23;4.00;;;1.05;;
45784;SDS011;31489;51.404;5.474;2023-02-27T12:55:09;2.63;;;1.30;;
45784;SDS011;31489;51.404;5.474;2023-02-27T13:00:47;3.72;;;1.30;;
45784;SDS011;31489;51.404;5.474;2023-02-27T13:11:47;3.08;;;1.30;;
45784;SDS011;31489;51.404;5.474;2023-02-27T13:14:42;3.03;;;1.30;;
45784;SDS011;31489;51.404;5.474;2023-02-27T13:17:17;2.05;;;1.17;;
45784;SDS011;31489;51.404;5.474;2023-02-27T13:19:54;5.47;;;1.02;;
45784;SDS011;31489;51.404;5.474;2023-02-27T13:25:12;2.08;;;1.50;;
45784;SDS011;31489;51.404;5.474;2023-02-27T13:27:42;2.90;;;1.08;;
45784;SDS011;31489;51.404;5.474;2023-02-27T13:30:24;2.50;;;1.15;;
45784;SDS011;31489;51.404;5.474;2023-02-27T13:32:58;2.85;;;1.20;;
45784;SDS011;31489;51.404;5.474;2023-02-27T13:35:34;2.63;;;1.17;;
45784;SDS011;31489;51.404;5.474;2023-02-27T13:43:52;1.60;;;1.00;;
45784;SDS011;31489;51.404;5.474;2023-02-27T13:48:49;4.25;;;1.20;;
45784;SDS011;31489;51.404;5.474;2023-02-27T13:59:38;2.17;;;1.08;;
45784;SDS011;31489;51.404;5.474;2023-02-27T14:04:50;3.60;;;1.20;;
45784;SDS011;31489;51.404;5.474;2023-02-27T14:07:27;2.70;;;1.20;;
45784;SDS011;31489;51.404;5.474;2023-02-27T14:10:04;4.18;;;1.20;;
45784;SDS011;31489;51.404;5.474;2023-02-27T14:12:36;3.33;;;1.30;;
45784;SDS011;31489;51.404;5.474;2023-02-27T14:15:05;2.35;;;0.98;;
45784;SDS011;31489;51.404;5.474;2023-02-27T14:17:55;2.50;;;1.38;;
45784;SDS011;31489;51.404;5.474;2023-02-27T14:28:15;4.32;;;1.40;;
45784;SDS011;31489;51.404;5.474;2023-02-27T14:30:51;2.22;;;1.08;;
45784;SDS011;31489;51.404;5.474;2023-02-27T14:33:21;1.48;;;1.00;;
45784;SDS011;31489;51.404;5.474;2023-02-27T14:36:00;3.13;;;1.40;;
45784;SDS011;31489;51.404;5.474;2023-02-27T14:38:30;2.00;;;0.93;;
45784;SDS011;31489;51.404;5.474;2023-02-27T14:41:21;3.25;;;1.13;;
45784;SDS011;31489;51.404;5.474;2023-02-27T14:43:53;1.83;;;1.00;;
45784;SDS011;31489;51.404;5.474;2023-02-27T14:49:02;4.45;;;1.13;;
45784;SDS011;31489;51.404;5.474;2023-02-27T14:51:49;2.13;;;0.95;;
45784;SDS011;31489;51.404;5.474;2023-02-27T14:54:17;2.60;;;1.20;;
45784;SDS011;31489;51.404;5.474;2023-02-27T14:56:55;4.65;;;1.35;;
45784;SDS011;31489;51.404;5.474;2023-02-27T14:59:28;2.97;;;1.20;;
45784;SDS011;31489;51.404;5.474;2023-02-27T15:01:57;2.05;;;1.30;;
45784;SDS011;31489;51.404;5.474;2023-02-27T15:04:27;2.47;;;1.08;;
45784;SDS011;31489;51.404;5.474;2023-02-27T15:06:59;1.35;;;0.85;;
45784;SDS011;31489;51.404;5.474;2023-02-27T15:09:40;3.95;;;1.02;;
45784;SDS011;31489;51.404;5.474;2023-02-27T15:12:15;2.42;;;1.02;;
45784;SDS011;31489;51.404;5.474;2023-02-27T15:14:45;3.10;;;1.10;;
45784;SDS011;31489;51.404;5.474;2023-02-27T15:17:16;3.40;;;1.00;;
45784;SDS011;31489;51.404;5.474;2023-02-27T15:20:14;1.80;;;0.95;;
45784;SDS011;31489;51.404;5.474;2023-02-27T15:22:47;3.13;;;1.17;;
45784;SDS011;31489;51.404;5.474;2023-02-27T15:25:27;3.47;;;0.93;;
45784;SDS011;31489;51.404;5.474;2023-02-27T15:28:14;2.35;;;1.30;;
45784;SDS011;31489;51.404;5.474;2023-02-27T15:30:49;1.85;;;0.82;;
45784;SDS011;31489;51.404;5.474;2023-02-27T15:33:16;3.05;;;1.10;;
45784;SDS011;31489;51.404;5.474;2023-02-27T15:35:46;2.55;;;1.10;;
45784;SDS011;31489;51.404;5.474;2023-02-27T15:40:58;2.67;;;1.05;;
45784;SDS011;31489;51.404;5.474;2023-02-27T15:43:28;2.03;;;1.02;;
45784;SDS011;31489;51.404;5.474;2023-02-27T15:45:55;3.40;;;1.10;;
45784;SDS011;31489;51.404;5.474;2023-02-27T15:48:22;2.58;;;0.93;;
45784;SDS011;31489;51.404;5.474;2023-02-27T15:51:07;3.53;;;1.25;;
45784;SDS011;31489;51.404;5.474;2023-02-27T15:53:34;3.25;;;1.33;;
45784;SDS011;31489;51.404;5.474;2023-02-27T15:56:04;1.95;;;1.10;;
45784;SDS011;31489;51.404;5.474;2023-02-27T15:58:46;0.98;;;0.98;;
45784;SDS011;31489;51.404;5.474;2023-02-27T16:01:24;4.28;;;1.50;;
45784;SDS011;31489;51.404;5.474;2023-02-27T16:04:00;2.83;;;1.30;;
45784;SDS011;31489;51.404;5.474;2023-02-27T16:06:30;2.88;;;1.17;;
45784;SDS011;31489;51.404;5.474;2023-02-27T16:08:59;1.48;;;1.00;;
45784;SDS011;31489;51.404;5.474;2023-02-27T16:11:31;2.60;;;1.10;;
45784;SDS011;31489;51.404;5.474;2023-02-27T16:13:58;2.15;;;1.05;;
45784;SDS011;31489;51.404;5.474;2023-02-27T16:16:32;5.00;;;1.08;;
45784;SDS011;31489;51.404;5.474;2023-02-27T16:19:01;6.82;;;1.33;;
45784;SDS011;31489;51.404;5.474;2023-02-27T16:22:02;1.70;;;0.90;;
45784;SDS011;31489;51.404;5.474;2023-02-27T16:24:42;2.55;;;1.38;;
45784;SDS011;31489;51.404;5.474;2023-02-27T16:27:18;2.67;;;1.08;;
45784;SDS011;31489;51.404;5.474;2023-02-27T16:29:51;3.10;;;1.33;;
45784;SDS011;31489;51.404;5.474;2023-02-27T16:32:23;1.60;;;1.05;;
45784;SDS011;31489;51.404;5.474;2023-02-27T16:34:49;3.15;;;1.33;;
45784;SDS011;31489;51.404;5.474;2023-02-27T16:39:57;1.00;;;0.93;;
45784;SDS011;31489;51.404;5.474;2023-02-27T16:42:23;2.50;;;1.15;;
45784;SDS011;31489;51.404;5.474;2023-02-27T16:44:49;4.15;;;1.25;;
45784;SDS011;31489;51.404;5.474;2023-02-27T16:47:14;2.63;;;1.00;;
45784;SDS011;31489;51.404;5.474;2023-02-27T16:49:40;3.05;;;1.25;;
45784;SDS011;31489;51.404;5.474;2023-02-27T16:52:10;4.35;;;1.35;;
45784;SDS011;31489;51.404;5.474;2023-02-27T16:55:00;2.03;;;1.00;;
45784;SDS011;31489;51.404;5.474;2023-02-27T16:57:29;4.22;;;1.30;;
45784;SDS011;31489;51.404;5.474;2023-02-27T16:59:55;3.35;;;1.20;;
45784;SDS011;31489;51.404;5.474;2023-02-27T17:02:21;3.65;;;1.25;;
45784;SDS011;31489;51.404;5.474;2023-02-27T17:04:47;3.38;;;1.40;;
45784;SDS011;31489;51.404;5.474;2023-02-27T17:07:17;2.28;;;1.20;;
45784;SDS011;31489;51.404;5.474;2023-02-27T17:09:45;5.65;;;1.60;;
45784;SDS011;31489;51.404;5.474;2023-02-27T17:12:11;1.80;;;1.25;;
45784;SDS011;31489;51.404;5.474;2023-02-27T17:14:37;2.30;;;1.13;;
45784;SDS011;31489;51.404;5.474;2023-02-27T17:17:06;2.30;;;1.40;;
45784;SDS011;31489;51.404;5.474;2023-02-27T17:19:35;2.45;;;1.48;;
45784;SDS011;31489;51.404;5.474;2023-02-27T17:22:04;2.83;;;1.63;;
45784;SDS011;31489;51.404;5.474;2023-02-27T17:24:36;4.43;;;1.70;;
45784;SDS011;31489;51.404;5.474;2023-02-27T17:27:29;5.75;;;1.40;;
45784;SDS011;31489;51.404;5.474;2023-02-27T17:30:00;2.65;;;1.40;;
45784;SDS011;31489;51.404;5.474;2023-02-27T17:32:26;2.90;;;1.60;;
45784;SDS011;31489;51.404;5.474;2023-02-27T17:34:55;8.50;;;2.78;;
45784;SDS011;31489;51.404;5.474;2023-02-27T17:37:21;3.10;;;1.33;;
45784;SDS011;31489;51.404;5.474;2023-02-27T17:39:47;2.60;;;1.30;;
45784;SDS011;31489;51.404;5.474;2023-02-27T17:42:13;3.00;;;1.65;;
45784;SDS011;31489;51.404;5.474;2023-02-27T17:44:43;2.40;;;1.50;;
45784;SDS011;31489;51.404;5.474;2023-02-27T17:47:10;2.90;;;1.35;;
45784;SDS011;31489;51.404;5.474;2023-02-27T17:49:36;4.05;;;1.60;;
45784;SDS011;31489;51.404;5.474;2023-02-27T17:52:01;4.00;;;1.63;;
45784;SDS011;31489;51.404;5.474;2023-02-27T17:54:27;2.90;;;1.60;;
45784;SDS011;31489;51.404;5.474;2023-02-27T17:56:53;1.83;;;1.40;;
45784;SDS011;31489;51.404;5.474;2023-02-27T17:59:26;3.13;;;1.65;;
45784;SDS011;31489;51.404;5.474;2023-02-27T18:01:52;3.95;;;1.80;;
45784;SDS011;31489;51.404;5.474;2023-02-27T18:04:18;4.47;;;1.58;;
45784;SDS011;31489;51.404;5.474;2023-02-27T18:06:46;3.95;;;1.50;;
45784;SDS011;31489;51.404;5.474;2023-02-27T18:09:12;2.97;;;1.85;;